Time;durP1;ratioP1;P1;durP2;ratioP2;P2;SDS_P1;SDS_P2;PMS_P1;PMS_P2;Temp;Humidity;BMP_temperature;BMP_pressure;BME280_temperature;BME280_humidity;BME280_pressure;Samples;Min_cycle;Max_cycle;Signal;HPM_P1;HPM_P2
2023/05/07 00:01:23;;;;;;;3.70;3.27;;;13.30;99.90;;;;;;5010432;28;20401;-79
2023/05/07 00:03:49;;;;;;;4.47;3.40;;;13.30;99.90;;;;;;5015346;28;20551;-79
2023/05/07 00:06:14;;;;;;;3.30;3.00;;;13.20;99.90;;;;;;5014580;28;20389;-80
2023/05/07 00:08:40;;;;;;;3.53;3.23;;;13.10;99.90;;;;;;5014934;28;20906;-79
2023/05/07 00:11:05;;;;;;;4.00;3.00;;;13.20;99.90;;;;;;5013072;28;20400;-79
2023/05/07 00:13:35;;;;;;;4.65;3.20;;;13.20;99.90;;;;;;5002457;28;20445;-79
2023/05/07 00:16:01;;;;;;;4.10;3.72;;;13.20;99.90;;;;;;4993367;28;20418;-79
2023/05/07 00:18:27;;;;;;;17.75;3.97;;;13.20;99.90;;;;;;4993575;28;20387;-79
2023/05/07 00:20:52;;;;;;;3.03;2.83;;;13.20;99.90;;;;;;4992920;28;20398;-79
2023/05/07 00:23:18;;;;;;;4.50;3.13;;;13.10;99.90;;;;;;4999458;28;20397;-79
2023/05/07 00:25:43;;;;;;;4.90;3.40;;;13.10;99.90;;;;;;4992927;28;20509;-79
2023/05/07 00:28:09;;;;;;;5.78;3.78;;;13.00;99.90;;;;;;4992086;28;20441;-79
2023/05/07 00:30:34;;;;;;;5.17;3.40;;;13.00;99.90;;;;;;4992944;28;20525;-79
2023/05/07 00:33:00;;;;;;;4.20;3.50;;;12.90;99.90;;;;;;4991396;28;20449;-79
2023/05/07 00:35:26;;;;;;;3.80;3.40;;;13.00;99.90;;;;;;5009958;28;20448;-79
2023/05/07 00:37:51;;;;;;;3.92;3.50;;;13.00;99.90;;;;;;5009298;28;20416;-79
2023/05/07 00:40:17;;;;;;;4.30;3.30;;;12.90;99.90;;;;;;4992227;28;20425;-79
2023/05/07 00:42:46;;;;;;;4.93;3.30;;;12.90;99.90;;;;;;4994074;28;20454;-79
2023/05/07 00:45:15;;;;;;;4.20;3.47;;;12.80;99.90;;;;;;4993269;28;20386;-79
2023/05/07 00:47:41;;;;;;;3.55;3.25;;;12.90;99.90;;;;;;4993169;28;20391;-80
2023/05/07 00:50:09;;;;;;;3.97;3.57;;;12.90;99.90;;;;;;5012608;28;20655;-79
2023/05/07 00:52:35;;;;;;;3.38;3.08;;;12.90;99.90;;;;;;5012003;28;20392;-79
2023/05/07 00:55:05;;;;;;;5.22;3.10;;;12.70;99.90;;;;;;5011742;28;20433;-79
2023/05/07 00:57:36;;;;;;;4.13;3.40;;;12.80;99.90;;;;;;5002261;28;20414;-82
2023/05/07 01:00:04;;;;;;;5.43;3.50;;;12.80;99.90;;;;;;5013805;28;20420;-79
2023/05/07 01:02:29;;;;;;;3.50;3.20;;;12.80;99.90;;;;;;5025953;28;20464;-79
2023/05/07 01:04:56;;;;;;;3.63;3.33;;;12.80;99.90;;;;;;5026079;28;20400;-79
2023/05/07 01:07:23;;;;;;;3.50;3.20;;;12.80;99.90;;;;;;5019086;28;20419;-80
2023/05/07 01:09:49;;;;;;;7.55;3.80;;;12.80;99.90;;;;;;5015993;28;20400;-80
2023/05/07 01:12:15;;;;;;;4.50;3.23;;;12.80;99.90;;;;;;5007805;28;20402;-79
2023/05/07 01:14:41;;;;;;;3.80;3.00;;;12.80;99.90;;;;;;5004961;28;20393;-79
2023/05/07 01:17:08;;;;;;;3.88;3.40;;;12.70;99.90;;;;;;5004614;28;20432;-79
2023/05/07 01:19:33;;;;;;;3.88;3.22;;;12.80;99.90;;;;;;5002442;28;20390;-80
2023/05/07 01:22:07;;;;;;;3.50;3.20;;;12.70;99.90;;;;;;5004677;28;21024;-80
2023/05/07 01:24:33;;;;;;;3.50;3.13;;;12.70;99.90;;;;;;5012682;28;20392;-80
2023/05/07 01:26:58;;;;;;;5.30;3.10;;;12.80;99.90;;;;;;4992674;28;20406;-80
2023/05/07 01:29:24;;;;;;;3.40;3.10;;;12.70;99.90;;;;;;4992499;28;20402;-80
2023/05/07 01:31:51;;;;;;;3.43;3.13;;;12.70;99.90;;;;;;4996485;28;20474;-80
2023/05/07 01:34:17;;;;;;;4.72;3.58;;;12.70;99.90;;;;;;5026557;28;20877;-80
2023/05/07 01:36:44;;;;;;;3.85;3.45;;;12.50;99.90;;;;;;5008355;28;20837;-79
2023/05/07 01:39:10;;;;;;;4.97;3.40;;;12.50;99.90;;;;;;5012721;28;20834;-80
2023/05/07 01:41:37;;;;;;;4.32;3.30;;;12.60;99.90;;;;;;5019186;28;20388;-80
2023/05/07 01:44:05;;;;;;;3.00;2.70;;;12.50;99.90;;;;;;5015422;28;20394;-80
2023/05/07 01:46:32;;;;;;;3.57;3.00;;;12.60;99.90;;;;;;4997438;28;20913;-80
2023/05/07 01:48:58;;;;;;;4.30;3.30;;;12.50;99.90;;;;;;4997634;28;20801;-80
2023/05/07 01:51:24;;;;;;;4.75;3.53;;;12.50;99.90;;;;;;4998125;28;20433;-79
2023/05/07 01:53:50;;;;;;;3.55;3.25;;;12.40;99.90;;;;;;5000077;28;20421;-79
2023/05/07 01:56:17;;;;;;;3.85;3.40;;;12.40;99.90;;;;;;5016953;28;20400;-79
2023/05/07 01:58:47;;;;;;;4.40;3.70;;;12.30;99.90;;;;;;5015245;28;20395;-79
2023/05/07 02:01:13;;;;;;;5.40;3.80;;;12.30;99.90;;;;;;5014683;28;20426;-79
2023/05/07 02:03:39;;;;;;;3.80;3.50;;;12.30;99.90;;;;;;4995557;28;20394;-79
2023/05/07 02:06:05;;;;;;;4.20;3.80;;;12.20;99.90;;;;;;5009428;28;20475;-79
2023/05/07 02:08:30;;;;;;;4.70;3.58;;;12.20;99.90;;;;;;5014754;28;20402;-79
2023/05/07 02:10:56;;;;;;;4.28;3.40;;;12.20;99.90;;;;;;5013576;28;20736;-79
2023/05/07 02:13:22;;;;;;;4.43;4.03;;;12.20;99.90;;;;;;5014041;28;20537;-79
2023/05/07 02:15:50;;;;;;;4.38;3.40;;;12.20;99.90;;;;;;5013509;28;20408;-79
2023/05/07 02:18:16;;;;;;;4.65;3.20;;;12.20;99.90;;;;;;4994701;28;20403;-80
2023/05/07 02:20:42;;;;;;;3.60;3.33;;;12.20;99.90;;;;;;4995068;28;20394;-79
2023/05/07 02:23:07;;;;;;;4.47;3.23;;;12.20;99.90;;;;;;4994851;28;20749;-79
2023/05/07 02:25:33;;;;;;;7.30;4.20;;;12.30;99.90;;;;;;4994467;28;20449;-79
2023/05/07 02:27:59;;;;;;;3.95;3.00;;;12.30;99.90;;;;;;5013606;28;20404;-79
2023/05/07 02:30:25;;;;;;;3.78;3.38;;;12.40;99.90;;;;;;5012552;28;20393;-79
2023/05/07 02:32:50;;;;;;;3.50;3.20;;;12.40;99.90;;;;;;5014216;28;20767;-79
2023/05/07 02:35:16;;;;;;;3.50;3.20;;;12.40;99.90;;;;;;4997040;28;20394;-79
2023/05/07 02:37:41;;;;;;;6.85;3.42;;;12.30;99.90;;;;;;4994546;28;20402;-79
2023/05/07 02:40:07;;;;;;;4.10;3.70;;;12.20;99.90;;;;;;4994568;28;20461;-79
2023/05/07 02:42:33;;;;;;;4.00;3.40;;;12.20;99.90;;;;;;4993526;28;20796;-79
2023/05/07 02:44:58;;;;;;;4.67;3.33;;;12.30;99.90;;;;;;5007960;28;20389;-79
2023/05/07 02:47:26;;;;;;;3.60;3.30;;;12.30;99.90;;;;;;5013336;28;20428;-79
2023/05/07 02:49:53;;;;;;;3.30;3.00;;;12.30;99.90;;;;;;4994418;28;20401;-79
2023/05/07 02:52:18;;;;;;;5.00;3.60;;;12.30;99.90;;;;;;4993140;28;20433;-79
2023/05/07 02:54:44;;;;;;;3.83;3.53;;;12.30;99.90;;;;;;4994664;28;20438;-79
2023/05/07 02:57:10;;;;;;;3.70;3.40;;;12.40;99.90;;;;;;4994690;28;20690;-79
2023/05/07 02:59:35;;;;;;;4.50;3.30;;;12.40;99.90;;;;;;5011474;28;20405;-79
2023/05/07 03:02:01;;;;;;;3.67;3.33;;;12.40;99.90;;;;;;5013596;28;20405;-80
2023/05/07 03:04:26;;;;;;;3.83;3.42;;;12.40;99.90;;;;;;5013609;28;20393;-79
2023/05/07 03:06:52;;;;;;;3.90;3.00;;;12.40;99.90;;;;;;5013089;28;20393;-79
2023/05/07 03:09:17;;;;;;;5.37;3.50;;;12.40;99.90;;;;;;5013218;28;20412;-79
2023/05/07 03:11:43;;;;;;;4.78;2.90;;;12.30;99.90;;;;;;5013656;28;20395;-79
2023/05/07 03:14:08;;;;;;;4.30;3.00;;;12.30;99.90;;;;;;5013560;28;20484;-79
2023/05/07 03:16:34;;;;;;;3.50;3.20;;;12.20;99.90;;;;;;5012298;28;20401;-79
2023/05/07 03:18:59;;;;;;;3.97;2.87;;;12.20;99.90;;;;;;4996251;28;20906;-79
2023/05/07 03:21:26;;;;;;;5.10;2.80;;;12.10;99.90;;;;;;4993885;28;20885;-79
2023/05/07 03:23:51;;;;;;;5.07;3.50;;;12.00;99.90;;;;;;4994247;28;20397;-79
2023/05/07 03:26:17;;;;;;;3.30;2.70;;;12.00;99.90;;;;;;4998601;28;20487;-79
2023/05/07 03:28:42;;;;;;;3.30;3.00;;;12.00;99.90;;;;;;5013479;28;20388;-79
2023/05/07 03:31:08;;;;;;;4.10;3.33;;;11.90;99.90;;;;;;5069181;22;20516;-84
2023/05/07 03:33:34;;;;;;;5.95;4.10;;;11.90;99.90;;;;;;5079343;28;20378;-84
2023/05/07 03:36:01;;;;;;;6.13;3.65;;;11.80;99.90;;;;;;5078479;28;20398;-84
2023/05/07 03:38:26;;;;;;;4.75;3.45;;;11.60;99.90;;;;;;5099572;28;20378;-84
2023/05/07 03:40:52;;;;;;;5.50;3.70;;;11.70;99.90;;;;;;5084199;28;20479;-83
2023/05/07 03:43:17;;;;;;;3.40;3.10;;;11.80;99.90;;;;;;5104213;28;20404;-84
2023/05/07 03:45:43;;;;;;;4.57;4.10;;;11.80;99.90;;;;;;5084912;28;20398;-84
2023/05/07 03:48:08;;;;;;;3.80;3.35;;;11.70;99.90;;;;;;5088893;28;20441;-84
2023/05/07 03:50:34;;;;;;;3.50;3.10;;;11.60;99.90;;;;;;5086838;28;20801;-83
2023/05/07 03:52:59;;;;;;;3.90;3.60;;;11.50;99.90;;;;;;5075236;28;20880;-83
2023/05/07 03:55:25;;;;;;;4.17;3.70;;;11.50;99.90;;;;;;5075029;28;20393;-83
2023/05/07 03:57:51;;;;;;;4.50;3.70;;;11.70;99.90;;;;;;5094165;28;20409;-84
2023/05/07 04:00:16;;;;;;;4.70;3.80;;;11.70;99.90;;;;;;5076123;28;20866;-83
2023/05/07 04:02:42;;;;;;;4.47;3.75;;;11.90;99.90;;;;;;5054766;28;20905;-83
2023/05/07 04:05:08;;;;;;;4.20;3.80;;;11.80;99.90;;;;;;5093160;28;20458;-83
2023/05/07 04:07:33;;;;;;;3.70;3.30;;;11.80;99.90;;;;;;5086939;28;20416;-83
2023/05/07 04:09:59;;;;;;;4.30;3.53;;;11.80;99.90;;;;;;5081234;28;20429;-84
2023/05/07 04:12:24;;;;;;;4.30;3.87;;;11.80;99.90;;;;;;5080163;28;20394;-84
2023/05/07 04:14:50;;;;;;;4.40;4.00;;;11.90;99.90;;;;;;5098690;28;20382;-84
2023/05/07 04:17:15;;;;;;;4.10;3.80;;;11.90;99.90;;;;;;5077335;28;20415;-84
2023/05/07 04:19:45;;;;;;;4.20;3.60;;;11.90;99.90;;;;;;5097007;28;20386;-83
2023/05/07 04:22:11;;;;;;;3.80;3.40;;;12.00;99.90;;;;;;5098278;28;20374;-82
2023/05/07 04:24:37;;;;;;;4.70;3.70;;;12.20;99.90;;;;;;5063516;28;20981;-84
2023/05/07 04:27:03;;;;;;;7.00;3.90;;;12.00;99.90;;;;;;5076125;28;20387;-84
2023/05/07 04:29:29;;;;;;;4.45;3.83;;;12.00;99.90;;;;;;5057772;28;20442;-84
2023/05/07 04:31:56;;;;;;;3.80;3.40;;;11.90;99.90;;;;;;5014793;28;1737253;-83
2023/05/07 04:34:21;;;;;;;4.88;3.53;;;11.80;99.90;;;;;;5088824;28;20407;-84
2023/05/07 04:36:47;;;;;;;5.97;4.00;;;11.90;99.90;;;;;;5077895;28;20402;-84
2023/05/07 04:39:13;;;;;;;4.82;4.15;;;11.90;99.90;;;;;;5078387;28;20519;-83
2023/05/07 04:41:39;;;;;;;3.55;3.25;;;12.10;99.90;;;;;;5080630;28;20441;-83
2023/05/07 04:44:05;;;;;;;4.80;3.60;;;12.10;99.90;;;;;;5056454;28;20379;-83
2023/05/07 04:46:31;;;;;;;4.25;3.90;;;12.20;99.90;;;;;;5055598;28;20393;-84
2023/05/07 04:48:56;;;;;;;4.70;4.17;;;12.20;99.90;;;;;;5076017;28;20388;-84
2023/05/07 04:51:22;;;;;;;4.10;3.60;;;12.40;99.90;;;;;;5068045;28;20419;-83
2023/05/07 04:53:48;;;;;;;6.65;3.70;;;12.30;99.90;;;;;;5069497;28;20398;-83
2023/05/07 04:56:14;;;;;;;4.70;3.70;;;12.40;99.90;;;;;;5056816;28;20454;-83
2023/05/07 04:58:39;;;;;;;4.60;3.80;;;12.40;99.90;;;;;;5075059;28;20388;-84
2023/05/07 05:01:05;;;;;;;4.10;3.70;;;12.50;99.90;;;;;;5057471;28;20779;-83
2023/05/07 05:03:31;;;;;;;4.50;4.10;;;12.60;99.90;;;;;;5078209;28;20490;-83
2023/05/07 05:05:59;;;;;;;4.27;3.50;;;12.70;99.90;;;;;;5095438;28;20404;-84
2023/05/07 05:08:24;;;;;;;4.20;3.80;;;12.80;99.90;;;;;;5078636;28;20800;-84
2023/05/07 05:10:50;;;;;;;3.80;3.40;;;12.80;99.90;;;;;;5066963;28;20391;-84
2023/05/07 05:13:16;;;;;;;4.00;3.70;;;12.90;99.90;;;;;;5081047;28;20764;-83
2023/05/07 05:15:41;;;;;;;5.30;3.75;;;13.00;99.90;;;;;;5096811;28;20442;-84
2023/05/07 05:18:07;;;;;;;5.00;3.57;;;13.10;99.90;;;;;;5078444;28;20374;-83
2023/05/07 05:20:32;;;;;;;4.20;3.80;;;13.00;99.90;;;;;;5092855;28;20440;-83
2023/05/07 05:22:58;;;;;;;4.35;3.95;;;13.10;99.90;;;;;;5075658;28;20778;-84
2023/05/07 05:25:23;;;;;;;4.70;4.30;;;13.20;99.90;;;;;;5058625;28;20420;-83
2023/05/07 05:27:49;;;;;;;4.10;3.70;;;13.30;99.90;;;;;;5072203;28;20469;-84
2023/05/07 05:30:14;;;;;;;4.18;3.88;;;13.40;99.90;;;;;;5077844;28;20440;-84
2023/05/07 05:32:40;;;;;;;3.60;3.30;;;13.30;99.90;;;;;;5096054;28;20859;-84
2023/05/07 05:35:06;;;;;;;3.57;3.33;;;13.40;99.90;;;;;;5077967;28;20623;-84
2023/05/07 05:37:31;;;;;;;6.10;3.70;;;13.60;99.90;;;;;;5066024;28;20407;-84
2023/05/07 05:39:57;;;;;;;4.03;3.60;;;13.50;99.90;;;;;;5076198;28;20391;-84
2023/05/07 05:42:23;;;;;;;4.43;3.83;;;13.30;99.90;;;;;;5078939;28;20391;-84
2023/05/07 05:44:48;;;;;;;4.45;4.05;;;13.40;99.90;;;;;;5077175;28;20395;-84
2023/05/07 05:47:14;;;;;;;4.30;3.90;;;13.50;99.90;;;;;;5076903;28;20424;-83
2023/05/07 05:49:40;;;;;;;4.60;3.87;;;13.60;99.90;;;;;;5095988;28;20413;-84
2023/05/07 05:52:05;;;;;;;3.93;3.63;;;13.70;99.90;;;;;;5095792;28;20389;-84
2023/05/07 05:54:31;;;;;;;4.70;3.80;;;13.80;99.90;;;;;;5057427;28;20460;-83
2023/05/07 05:56:56;;;;;;;5.30;3.57;;;13.90;99.90;;;;;;5054113;28;20408;-83
2023/05/07 05:59:22;;;;;;;4.40;3.30;;;14.00;99.90;;;;;;5095780;28;20378;-84
2023/05/07 06:01:48;;;;;;;3.70;3.40;;;14.10;99.90;;;;;;5107361;28;20392;-83
2023/05/07 06:04:13;;;;;;;3.83;3.40;;;14.40;99.90;;;;;;5087826;28;20760;-83
2023/05/07 06:06:39;;;;;;;3.42;3.13;;;14.50;99.90;;;;;;5059635;28;20399;-84
2023/05/07 06:09:04;;;;;;;3.30;3.00;;;14.50;99.90;;;;;;5060721;28;20903;-84
2023/05/07 06:11:32;;;;;;;3.20;2.90;;;14.70;99.90;;;;;;5076766;28;20411;-84
2023/05/07 06:13:57;;;;;;;3.97;3.10;;;14.80;99.90;;;;;;5058186;28;20384;-84
2023/05/07 06:16:24;;;;;;;3.53;3.23;;;15.00;99.90;;;;;;5057305;28;20414;-84
2023/05/07 06:18:50;;;;;;;3.50;3.20;;;15.00;99.90;;;;;;5088343;28;20430;-84
2023/05/07 06:21:16;;;;;;;3.60;3.30;;;15.00;99.90;;;;;;5094855;28;20405;-84
2023/05/07 06:23:41;;;;;;;4.00;3.60;;;15.10;99.90;;;;;;5076817;28;20523;-83
2023/05/07 06:26:07;;;;;;;3.97;3.10;;;15.30;99.90;;;;;;5075595;28;20409;-82
2023/05/07 06:28:36;;;;;;;4.30;3.33;;;15.40;99.90;;;;;;5062333;28;20437;-82
2023/05/07 06:31:22;;;;;;;4.60;3.73;;;15.50;99.90;;;;;;5099060;28;20442;-83
2023/05/07 06:33:48;;;;;;;4.65;3.60;;;15.50;99.90;;;;;;5082174;28;20383;-83
2023/05/07 06:36:13;;;;;;;4.90;3.92;;;15.50;99.90;;;;;;5085126;28;20467;-84
2023/05/07 06:38:39;;;;;;;4.60;4.20;;;15.70;99.90;;;;;;5100759;28;20930;-83
2023/05/07 06:41:06;;;;;;;5.00;4.00;;;15.80;99.90;;;;;;5100484;28;20447;-84
2023/05/07 06:43:31;;;;;;;4.78;4.28;;;15.70;99.90;;;;;;5100876;28;20389;-83
2023/05/07 06:45:57;;;;;;;5.22;4.55;;;15.70;99.90;;;;;;5099799;28;20424;-84
2023/05/07 06:48:22;;;;;;;4.55;4.10;;;15.70;99.90;;;;;;5062720;28;20897;-83
2023/05/07 06:50:48;;;;;;;5.20;4.20;;;15.50;99.90;;;;;;5079563;28;20395;-84
2023/05/07 06:53:14;;;;;;;4.33;3.93;;;15.50;99.90;;;;;;5082130;28;20403;-84
2023/05/07 06:55:39;;;;;;;5.45;4.07;;;15.70;99.90;;;;;;5088219;28;20389;-82
2023/05/07 06:58:05;;;;;;;5.23;4.77;;;15.80;99.90;;;;;;5076491;28;20416;-83
2023/05/07 07:00:31;;;;;;;4.88;4.20;;;15.90;99.90;;;;;;5061867;28;20403;-83
2023/05/07 07:02:57;;;;;;;4.67;4.20;;;15.90;99.90;;;;;;5073500;28;20384;-83
2023/05/07 07:05:23;;;;;;;4.20;3.90;;;15.90;99.90;;;;;;5063582;28;20393;-83
2023/05/07 07:07:57;;;;;;;4.10;3.70;;;16.10;99.90;;;;;;5075913;28;20422;-83
2023/05/07 07:10:23;;;;;;;4.78;4.10;;;16.00;99.90;;;;;;5076325;28;20413;-83
2023/05/07 07:12:49;;;;;;;4.40;3.60;;;16.10;99.90;;;;;;5096782;28;20860;-83
2023/05/07 07:15:15;;;;;;;5.70;4.05;;;16.30;99.90;;;;;;5074202;28;20403;-83
2023/05/07 07:17:41;;;;;;;7.00;4.07;;;16.30;99.90;;;;;;5077194;28;20415;-83
2023/05/07 07:20:07;;;;;;;4.00;3.60;;;16.30;99.90;;;;;;5058918;28;20383;-84
2023/05/07 07:22:32;;;;;;;5.00;4.55;;;16.40;99.90;;;;;;5086953;28;20402;-84
2023/05/07 07:24:58;;;;;;;4.88;4.28;;;16.40;99.90;;;;;;5096796;28;20467;-83
2023/05/07 07:27:23;;;;;;;4.40;4.00;;;16.40;99.90;;;;;;5096652;28;20862;-84
2023/05/07 07:29:49;;;;;;;4.40;4.00;;;16.50;99.90;;;;;;5079052;28;20382;-84
2023/05/07 07:32:15;;;;;;;4.72;4.32;;;16.60;99.90;;;;;;5070802;28;20483;-84
2023/05/07 07:34:40;;;;;;;5.22;4.10;;;16.70;99.90;;;;;;5062758;28;20602;-83
2023/05/07 07:37:06;;;;;;;4.40;4.00;;;16.60;99.90;;;;;;5092785;28;20405;-84
2023/05/07 07:39:32;;;;;;;4.43;4.03;;;16.70;99.90;;;;;;5094247;28;20381;-83
2023/05/07 07:41:58;;;;;;;5.10;3.60;;;16.80;99.90;;;;;;5094720;28;20390;-84
2023/05/07 07:44:23;;;;;;;4.77;4.27;;;16.80;99.90;;;;;;5095524;28;20394;-84
2023/05/07 07:46:49;;;;;;;5.53;4.30;;;16.90;99.90;;;;;;5097272;28;20844;-85
2023/05/07 07:49:15;;;;;;;4.30;3.90;;;17.00;99.90;;;;;;5078424;28;20884;-82
2023/05/07 07:51:40;;;;;;;4.80;4.20;;;17.00;99.90;;;;;;5078529;28;20410;-85
2023/05/07 07:54:06;;;;;;;4.20;3.80;;;17.00;99.90;;;;;;5061665;28;20434;-85
2023/05/07 07:56:34;;;;;;;4.10;3.70;;;17.10;99.90;;;;;;5078233;28;20414;-84
2023/05/07 07:59:00;;;;;;;3.90;3.60;;;17.10;99.90;;;;;;5060142;28;20384;-83
2023/05/07 08:01:26;;;;;;;4.00;3.70;;;17.20;99.90;;;;;;5066743;28;20397;-82
2023/05/07 08:03:52;;;;;;;4.67;4.20;;;17.30;99.90;;;;;;5071947;28;20391;-83
2023/05/07 08:06:17;;;;;;;4.15;3.85;;;17.40;99.90;;;;;;5061263;28;20426;-83
2023/05/07 08:08:43;;;;;;;4.30;4.00;;;17.50;99.90;;;;;;5064502;28;20383;-83
2023/05/07 08:11:09;;;;;;;4.77;4.27;;;17.50;99.90;;;;;;5062773;28;20733;-83
2023/05/07 08:13:35;;;;;;;4.37;3.97;;;17.70;99.90;;;;;;5060246;28;20388;-83
2023/05/07 08:16:00;;;;;;;4.73;4.30;;;17.80;99.90;;;;;;5071909;28;20416;-83
2023/05/07 08:18:28;;;;;;;5.63;4.85;;;17.90;99.90;;;;;;5094770;28;20394;-82
2023/05/07 08:20:53;;;;;;;8.05;4.07;;;18.10;99.90;;;;;;5095507;28;20744;-82
2023/05/07 08:23:19;;;;;;;5.00;4.37;;;18.10;99.90;;;;;;5074458;28;20382;-83
2023/05/07 08:25:45;;;;;;;4.97;4.40;;;18.30;99.90;;;;;;5057621;28;20725;-82
2023/05/07 08:28:10;;;;;;;4.28;3.88;;;18.20;99.90;;;;;;5075859;28;20376;-82
2023/05/07 08:30:36;;;;;;;4.30;3.90;;;18.30;96.20;;;;;;5058601;28;20794;-83
2023/05/07 08:33:01;;;;;;;4.60;4.20;;;18.60;96.50;;;;;;5075739;28;20379;-82
2023/05/07 08:35:27;;;;;;;4.40;3.70;;;18.40;99.90;;;;;;5094326;28;20398;-82
2023/05/07 08:37:53;;;;;;;4.45;3.88;;;18.60;90.30;;;;;;5078169;28;20398;-83
2023/05/07 08:40:20;;;;;;;3.93;3.63;;;18.70;88.40;;;;;;5094346;28;20377;-83
2023/05/07 08:42:48;;;;;;;5.28;3.75;;;18.70;93.20;;;;;;5058009;28;20387;-83
2023/05/07 08:45:15;;;;;;;5.40;3.97;;;18.90;75.90;;;;;;5076242;28;20448;-82
2023/05/07 08:47:46;;;;;;;4.97;4.45;;;18.70;89.90;;;;;;5076256;28;20376;-83
2023/05/07 08:50:12;;;;;;;3.78;3.30;;;18.70;82.20;;;;;;5058152;28;20434;-83
2023/05/07 08:52:39;;;;;;;4.70;3.70;;;18.70;87.00;;;;;;5077040;28;20398;-83
2023/05/07 08:55:06;;;;;;;4.20;3.80;;;18.70;82.90;;;;;;5094567;28;20469;-82
2023/05/07 08:57:31;;;;;;;4.00;3.70;;;18.60;82.70;;;;;;5076453;28;20428;-82
2023/05/07 08:59:57;;;;;;;5.50;4.13;;;18.80;91.90;;;;;;5065899;28;20774;-82
2023/05/07 09:02:23;;;;;;;4.72;4.30;;;18.80;86.30;;;;;;5057620;28;20376;-83
2023/05/07 09:04:48;;;;;;;3.80;3.50;;;18.90;83.30;;;;;;5062038;28;20467;-83
2023/05/07 09:07:14;;;;;;;7.00;4.45;;;19.00;92.10;;;;;;5094783;28;20751;-83
2023/05/07 09:09:39;;;;;;;5.63;4.40;;;19.00;92.90;;;;;;5076496;28;20393;-82
2023/05/07 09:12:05;;;;;;;4.90;4.40;;;19.20;96.30;;;;;;5094887;28;20443;-83
2023/05/07 09:14:31;;;;;;;4.35;4.05;;;19.20;98.30;;;;;;5086756;28;20399;-82
2023/05/07 09:16:56;;;;;;;5.60;5.20;;;19.40;99.90;;;;;;5089356;28;20402;-82
2023/05/07 09:19:26;;;;;;;5.20;4.70;;;19.40;99.90;;;;;;5095337;28;20373;-83
2023/05/07 09:22:02;;;;;;;5.50;4.47;;;19.40;99.90;;;;;;5096220;28;20425;-83
2023/05/07 09:24:33;;;;;;;4.97;4.22;;;19.60;99.90;;;;;;5089716;28;20427;-83
2023/05/07 09:27:00;;;;;;;6.55;5.40;;;19.50;99.90;;;;;;5073842;28;20478;-83
2023/05/07 09:29:25;;;;;;;7.53;5.85;;;19.50;99.90;;;;;;5080818;28;20402;-83
2023/05/07 09:31:51;;;;;;;5.82;5.20;;;19.40;99.90;;;;;;5083117;22;20428;-80
2023/05/07 09:34:16;;;;;;;4.00;3.70;;;19.70;99.90;;;;;;5052255;28;20381;-79
2023/05/07 09:36:42;;;;;;;4.40;4.00;;;19.70;99.90;;;;;;5051840;28;20408;-80
2023/05/07 09:39:08;;;;;;;4.30;3.90;;;19.80;92.20;;;;;;5050870;28;20395;-79
2023/05/07 09:41:43;;;;;;;4.05;3.75;;;19.50;91.10;;;;;;5043505;28;20391;-80
2023/05/07 09:44:09;;;;;;;3.92;3.60;;;19.70;90.10;;;;;;5028339;28;20445;-78
2023/05/07 09:46:38;;;;;;;3.80;3.40;;;19.80;84.60;;;;;;5030209;28;20405;-79
2023/05/07 09:49:09;;;;;;;4.00;3.70;;;19.80;78.60;;;;;;5043981;28;20436;-80
2023/05/07 09:51:41;;;;;;;4.38;3.60;;;19.80;78.00;;;;;;5045293;28;20388;-78
2023/05/07 09:54:07;;;;;;;4.43;3.20;;;19.90;78.40;;;;;;5051800;28;20389;-80
2023/05/07 09:56:33;;;;;;;3.90;3.60;;;20.10;72.60;;;;;;5033221;28;20412;-79
2023/05/07 09:59:03;;;;;;;4.35;3.95;;;19.80;85.60;;;;;;5011931;28;20388;-79
2023/05/07 10:01:31;;;;;;;4.13;3.55;;;19.70;86.60;;;;;;5014079;28;20725;-79
2023/05/07 10:03:58;;;;;;;4.00;3.60;;;19.30;96.50;;;;;;5025365;28;20383;-78
2023/05/07 10:06:25;;;;;;;4.00;3.60;;;19.40;98.60;;;;;;5032117;28;20972;-78
2023/05/07 10:08:52;;;;;;;4.43;4.03;;;19.30;99.90;;;;;;5034788;28;20418;-78
2023/05/07 10:11:19;;;;;;;4.90;3.70;;;19.00;99.90;;;;;;5036338;28;20895;-78
2023/05/07 10:13:47;;;;;;;4.38;3.97;;;18.80;99.90;;;;;;5035039;28;20406;-78
2023/05/07 10:16:14;;;;;;;4.35;3.95;;;18.80;99.90;;;;;;5035916;28;20403;-78
2023/05/07 10:18:40;;;;;;;4.43;3.50;;;18.70;99.90;;;;;;5030716;28;20788;-78
2023/05/07 10:21:17;;;;;;;4.63;4.30;;;17.70;99.90;;;;;;5024649;28;20421;-80
2023/05/07 10:23:50;;;;;;;5.00;4.28;;;17.80;99.90;;;;;;5017537;28;20400;-79
2023/05/07 10:26:18;;;;;;;4.63;4.23;;;17.40;99.90;;;;;;5035755;28;20470;-81
2023/05/07 10:28:49;;;;;;;5.80;5.28;;;17.80;99.90;;;;;;5044887;28;20418;-81
2023/05/07 10:31:29;;;;;;;5.82;4.93;;;16.70;99.90;;;;;;5030040;28;20419;-82
2023/05/07 10:33:56;;;;;;;6.75;5.50;;;16.10;99.90;;;;;;5024251;28;20460;-79
2023/05/07 10:36:22;;;;;;;11.15;5.68;;;15.90;99.90;;;;;;5028922;28;20464;-79
2023/05/07 10:38:48;;;;;;;6.90;6.20;;;15.80;99.90;;;;;;5038664;28;20403;-79
2023/05/07 10:41:32;;;;;;;7.10;6.50;;;15.70;99.90;;;;;;5174593;23;20395;-80
2023/05/07 10:44:02;;;;;;;6.23;5.73;;;18.90;99.90;;;;;;5047698;28;20407;-80
2023/05/07 10:46:53;;;;;;;6.40;5.80;;;18.90;99.90;;;;;;5022714;28;20404;-79
2023/05/07 10:49:18;;;;;;;6.60;6.03;;;14.60;99.90;;;;;;5008194;28;20428;-79
2023/05/07 10:51:46;;;;;;;6.10;5.60;;;16.00;99.90;;;;;;5039752;28;20408;-80
2023/05/07 10:54:12;;;;;;;8.40;6.65;;;15.90;99.90;;;;;;5028359;28;20423;-79
2023/05/07 10:56:42;;;;;;;6.22;5.72;;;16.30;99.90;;;;;;5026784;28;20408;-79
2023/05/07 10:59:23;;;;;;;7.07;6.20;;;16.40;99.90;;;;;;5029161;28;20388;-78
2023/05/07 11:02:03;;;;;;;5.93;5.43;;;17.60;99.90;;;;;;5024692;28;20408;-81
2023/05/07 11:04:34;;;;;;;6.25;5.65;;;16.90;99.90;;;;;;5024142;28;20488;-80
2023/05/07 11:07:06;;;;;;;5.80;5.20;;;17.20;99.90;;;;;;5016067;28;20384;-80
2023/05/07 11:09:58;;;;;;;6.40;5.00;;;17.40;99.90;;;;;;5033121;28;20400;-80
2023/05/07 11:12:36;;;;;;;6.28;4.80;;;17.50;99.90;;;;;;5024252;28;20413;-83
2023/05/07 11:15:12;;;;;;;5.50;5.00;;;17.70;99.90;;;;;;5032433;28;20510;-80
2023/05/07 11:17:58;;;;;;;5.10;4.70;;;18.00;99.90;;;;;;5035146;28;20414;-80
2023/05/07 11:20:56;;;;;;;5.00;4.50;;;18.20;99.90;;;;;;5050765;28;20426;-80
2023/05/07 11:23:34;;;;;;;4.30;3.90;;;18.50;99.90;;;;;;5038455;28;20401;-81
2023/05/07 11:26:11;;;;;;;4.70;4.30;;;18.70;99.90;;;;;;5055362;28;20386;-81
2023/05/07 11:28:38;;;;;;;4.73;4.33;;;20.00;99.90;;;;;;5018906;28;20407;-80
2023/05/07 11:31:04;;;;;;;4.60;4.20;;;18.00;99.90;;;;;;5035876;28;20402;-80
2023/05/07 11:33:33;;;;;;;3.83;3.53;;;19.30;99.90;;;;;;5034199;28;20482;-80
2023/05/07 11:36:00;;;;;;;4.53;3.95;;;20.10;99.90;;;;;;5034280;28;20416;-81
2023/05/07 11:38:26;;;;;;;4.32;3.80;;;20.20;99.90;;;;;;5046375;28;20514;-80
2023/05/07 11:41:00;;;;;;;4.10;3.70;;;20.30;99.90;;;;;;5032282;28;20396;-79
2023/05/07 11:43:26;;;;;;;4.20;3.90;;;20.00;99.90;;;;;;5033781;28;20468;-79
2023/05/07 11:45:52;;;;;;;4.60;4.20;;;19.60;99.90;;;;;;5048593;28;20466;-79
2023/05/07 11:48:18;;;;;;;4.70;4.10;;;19.30;99.90;;;;;;5052824;28;20896;-82
2023/05/07 11:50:59;;;;;;;4.53;4.13;;;19.10;99.90;;;;;;5030139;28;20408;-79
2023/05/07 11:53:26;;;;;;;4.32;3.92;;;18.90;99.90;;;;;;5027446;28;20436;-80
2023/05/07 11:55:57;;;;;;;5.17;3.97;;;20.00;99.90;;;;;;5031502;28;20453;-80
2023/05/07 11:58:25;;;;;;;4.10;3.70;;;18.10;99.90;;;;;;5026645;28;20482;-80
2023/05/07 12:00:52;;;;;;;4.60;4.10;;;18.70;99.90;;;;;;5043659;28;20391;-79
2023/05/07 12:03:20;;;;;;;4.10;3.80;;;18.60;99.90;;;;;;5034743;28;20404;-80
2023/05/07 12:05:47;;;;;;;4.22;3.70;;;19.00;99.90;;;;;;5035458;28;20396;-80
2023/05/07 12:08:16;;;;;;;4.50;4.10;;;19.90;99.90;;;;;;5015222;28;20441;-80
2023/05/07 12:10:47;;;;;;;4.35;3.83;;;18.20;99.90;;;;;;5023504;28;20411;-83
2023/05/07 12:13:17;;;;;;;4.60;4.20;;;18.70;99.90;;;;;;4999727;28;20428;-83
2023/05/07 12:15:49;;;;;;;4.05;3.42;;;18.80;99.90;;;;;;5026913;28;20403;-81
2023/05/07 12:18:15;;;;;;;4.00;3.70;;;19.10;99.90;;;;;;5026662;28;20380;-82
2023/05/07 12:20:41;;;;;;;4.50;3.80;;;19.30;99.90;;;;;;5023821;28;20770;-80
2023/05/07 12:23:06;;;;;;;3.75;3.45;;;21.20;99.90;;;;;;5019402;28;20395;-80
2023/05/07 12:25:36;;;;;;;6.20;3.30;;;20.60;99.90;;;;;;5014396;28;20393;-82
2023/05/07 12:28:05;;;;;;;4.20;3.80;;;19.90;99.90;;;;;;5024398;28;20405;-80
2023/05/07 12:30:41;;;;;;;4.50;4.10;;;19.70;99.90;;;;;;5026067;28;20416;-80
2023/05/07 12:33:07;;;;;;;5.70;4.13;;;19.50;99.90;;;;;;5011958;28;20471;-82
2023/05/07 12:35:41;;;;;;;4.20;3.80;;;19.20;99.90;;;;;;5007888;28;20397;-81
2023/05/07 12:38:14;;;;;;;4.32;3.95;;;19.10;99.90;;;;;;5024226;28;20400;-80
2023/05/07 12:40:45;;;;;;;5.05;4.45;;;19.20;99.90;;;;;;5024935;28;20424;-81
2023/05/07 12:43:28;;;;;;;4.72;4.18;;;18.00;99.90;;;;;;5037277;28;20847;-80
2023/05/07 12:45:59;;;;;;;4.50;4.10;;;19.30;99.90;;;;;;5006504;28;20466;-81